Flight Track Log - Related Links

Times and Time Zones

All times are in EDT time to prevent confusion due to time zone crossing. See the ASQ5958 flight status page for this flight to view local times or setup timezone preferences in your user account.

Time Position Orientation Groundspeed Altitude Reporting Facility
EDT Latitude Longitude Course Direction KTS MPH feet Rate Location/Type
Sat 12:35:58 PM 32.0975 -110.9164 129° Southeast 177 204 3,300  Level Albuquerque Center
Sat 12:37:05 PM 32.0614 -110.8631 129° Southeast 207 238 5,800 2,294 Climbing Albuquerque Center
Sat 12:37:40 PM 32.0581 -110.8236 96° East 208 239 7,200 2,227 Climbing Albuquerque Center
Sat 12:38:42 PM 32.0461 -110.7478 101° East 238 274 9,400 2,129 Climbing Albuquerque Center
Sat 12:39:44 PM 32.0322 -110.6622 101° East 259 298 11,600 2,195 Climbing Albuquerque Center
Sat 12:40:45 PM 32.0161 -110.5525 100° East 298 343 13,900 2,098 Climbing Albuquerque Center
Sat 12:41:47 PM 31.9978 -110.4500 102° East 316 364 15,900 1,694 Climbing Albuquerque Center
Sat 12:42:49 PM 31.9797 -110.3397 101° East 339 390 17,400 1,548 Climbing Albuquerque Center
Sat 12:43:51 PM 31.9756 -110.1972 92° East 368 423 19,100 1,597 Climbing Albuquerque Center
Sat 12:44:53 PM 32.0497 -110.1269 39° Northeast 359 413 20,700 1,258 Climbing Albuquerque Center
Sat 12:45:55 PM 32.1458 -110.0892 18° North 363 418 21,700 968 Climbing Albuquerque Center
Sat 12:46:57 PM 32.2500 -110.0497 18° North 386 444 22,700 968 Climbing Albuquerque Center
Sat 12:47:59 PM 32.3531 -110.0044 20° North 392 451 23,700 968 Climbing Albuquerque Center
Sat 12:49:01 PM 32.4603 -109.9628 18° North 402 463 24,700 1,366 Climbing Albuquerque Center
Sat 12:50:02 PM 32.5864 -109.9103 19° North 403 464 26,500 1,756 Climbing Albuquerque Center
Sat 12:51:04 PM 32.6875 -109.8689 19° North 395 455 28,300 1,694 Climbing Albuquerque Center
Sat 12:52:06 PM 32.7822 -109.8275 20° North 375 432 30,000 1,694 Climbing Albuquerque Center
Sat 12:53:08 PM 32.8761 -109.7886 19° North 364 419 31,800 1,403 Climbing Albuquerque Center
Sat 12:54:10 PM 32.9675 -109.7503 19° North 355 409 32,900 1,161 Climbing Albuquerque Center
Sat 12:55:12 PM 33.0800 -109.7042 19° North 355 409 34,200 1,113 Climbing Albuquerque Center
Sat 12:56:14 PM 33.1736 -109.6644 20° North 357 411 35,200 1,016 Climbing Albuquerque Center
Sat 12:57:16 PM 33.2672 -109.6247 20° North 358 412 36,300 871 Climbing Albuquerque Center
Sat 12:58:18 PM 33.3586 -109.5864 19° North 353 406 37,000 339 Climbing Albuquerque Center
Sat 12:59:20 PM 33.4517 -109.5481 19° North 352 405 37,000  Level Albuquerque Center
Sat 01:00:21 PM 33.5506 -109.5056 20° North 366 421 37,000  Level Albuquerque Center
Sat 01:01:23 PM 33.6767 -109.4528 19° North 391 450 37,000  Level Albuquerque Center
Sat 01:02:25 PM 33.7842 -109.4078 19° North 403 464 37,000  Level Albuquerque Center
Sat 01:03:27 PM 33.8922 -109.3619 19° North 411 473 37,000  Level Albuquerque Center
Sat 01:04:29 PM 34.0000 -109.3158 20° North 413 475 37,000  Level Albuquerque Center
Sat 01:05:31 PM 34.1078 -109.2689 20° North 413 475 37,000  Level Albuquerque Center
Sat 01:06:33 PM 34.2158 -109.2239 19° North 413 475 37,000  Level Albuquerque Center
Sat 01:07:35 PM 34.3425 -109.1675 20° North 411 473 37,000  Level Albuquerque Center
Sat 01:08:37 PM 34.4467 -109.1233 19° North 412 474 37,000  Level Albuquerque Center
Sat 01:09:39 PM 34.5681 -109.0708 20° North 414 476 37,000  Level Albuquerque Center
Sat 01:10:41 PM 34.6706 -109.0258 20° North 410 472 37,000  Level Albuquerque Center
Sat 01:11:43 PM 34.7914 -108.9736 20° North 411 473 37,000  Level Albuquerque Center
Sat 01:12:45 PM 34.8950 -108.9286 20° North 412 474 37,000  Level Albuquerque Center
Sat 01:13:47 PM 35.0147 -108.8761 20° North 410 472 37,000  Level Albuquerque Center
Sat 01:14:49 PM 35.1183 -108.8311 20° North 412 474 37,000  Level Albuquerque Center
Sat 01:15:51 PM 35.2400 -108.7769 20° North 415 478 37,000  Level Albuquerque Center
Sat 01:16:52 PM 35.3422 -108.7336 19° North 410 472 37,000  Level Albuquerque Center
Sat 01:17:54 PM 35.4628 -108.6789 20° North 412 474 37,000  Level Albuquerque Center
Sat 01:18:56 PM 35.5672 -108.6331 20° North 415 478 37,000  Level Albuquerque Center
Sat 01:19:58 PM 35.6878 -108.5786 20° North 414 476 37,000  Level Albuquerque Center
Sat 01:21:00 PM 35.7878 -108.5206 25° Northeast 417 480 37,000  Level Albuquerque Center
Sat 01:22:02 PM 35.8969 -108.4267 35° Northeast 430 495 37,000  Level Albuquerque Center
Sat 01:23:04 PM 35.9892 -108.3453 36° Northeast 429 494 37,000  Level Albuquerque Center
Sat 01:24:06 PM 36.0978 -108.2497 35° Northeast 430 495 37,000  Level Albuquerque Center
Sat 01:25:06 PM 36.1917 -108.1675 35° Northeast 432 497 37,000  Level Denver Center
Sat 01:26:08 PM 36.2847 -108.0839 36° Northeast 433 498 37,000  Level Denver Center
Sat 01:27:10 PM 36.3936 -107.9867 36° Northeast 433 498 37,000  Level Denver Center
Sat 01:28:12 PM 36.4869 -107.9019 36° Northeast 433 498 37,000  Level Denver Center
Sat 01:29:13 PM 36.5972 -107.8050 35° Northeast 435 501 37,000  Level Denver Center
Sat 01:30:15 PM 36.6908 -107.7183 37° Northeast 437 503 37,000  Level Denver Center
Sat 01:31:17 PM 36.8019 -107.6197 35° Northeast 438 504 37,000  Level Denver Center
Sat 01:32:19 PM 36.8961 -107.5344 36° Northeast 436 502 37,000  Level Denver Center
Sat 01:33:21 PM 36.9911 -107.4483 36° Northeast 440 506 37,000  Level Denver Center
Sat 01:34:23 PM 37.1011 -107.3478 36° Northeast 438 504 37,000  Level Denver Center
Sat 01:35:24 PM 37.1967 -107.2608 36° Northeast 442 509 37,000  Level Denver Center
Sat 01:36:26 PM 37.3067 -107.1594 36° Northeast 440 506 37,000  Level Denver Center
Sat 01:37:28 PM 37.4025 -107.0719 36° Northeast 440 506 37,000  Level Denver Center
Sat 01:38:30 PM 37.5144 -106.9689 36° Northeast 447 514 37,000  Level Denver Center
Sat 01:39:32 PM 37.6100 -106.8794 37° Northeast 448 516 37,000  Level Denver Center
Sat 01:40:34 PM 37.7200 -106.7758 37° Northeast 441 507 37,000  Level Denver Center
Sat 01:41:35 PM 37.8142 -106.6886 36° Northeast 437 503 37,000  Level Denver Center
Sat 01:42:37 PM 37.9194 -106.5903 36° Northeast 440 506 37,000  Level Denver Center
Sat 01:43:39 PM 38.0114 -106.5050 36° Northeast 438 504 37,000  Level Denver Center
Sat 01:44:41 PM 38.1128 -106.4092 37° Northeast 440 506 37,000  Level Denver Center
Sat 01:45:43 PM 38.2119 -106.3156 37° Northeast 443 510 37,000 -194 Level Denver Center
Sat 01:46:45 PM 38.3106 -106.2217 37° Northeast 443 510 36,600 -634 Descending Denver Center
Sat 01:47:46 PM 38.4247 -106.1125 37° Northeast 457 526 35,700 -878 Descending Denver Center
Sat 01:48:48 PM 38.5358 -106.0058 37° Northeast 449 517 34,800 -774 Descending Denver Center
Sat 01:49:50 PM 38.6292 -105.9167 37° Northeast 448 516 34,100 -1,597 Descending Denver Center
Sat 01:50:52 PM 38.7319 -105.8169 37° Northeast 456 525 31,500 -2,661 Descending Denver Center
Sat 01:51:54 PM 38.8369 -105.7158 37° Northeast 465 535 28,600 -2,780 Descending Denver Center
Sat 01:52:55 PM 38.9489 -105.6058 37° Northeast 483 556 25,800 -2,780 Descending Denver Center
Sat 01:53:57 PM 39.0636 -105.4944 37° Northeast 468 539 22,900 -2,559 Descending Denver Center
Sat 01:55:11 PM 39.1844 -105.3775 37° Northeast 436 502 20,000 -1,941 Descending Denver Center
Sat 01:56:13 PM 39.2578 -105.2853 44° Northeast 358 412 18,500 -1,548 Descending Denver Center
Sat 01:57:15 PM 39.2858 -105.1522 75° East 353 406 16,800 -1,355 Descending Denver Center
Sat 01:58:17 PM 39.3086 -105.0333 76° East 345 397 15,700 -1,065 Descending Denver Center
Sat 01:59:19 PM 39.3378 -104.9211 71° East 335 386 14,600 -919 Descending Denver Center
Sat 02:00:21 PM 39.3839 -104.8294 57° Northeast 293 337 13,800 -726 Descending Denver Center
Sat 02:01:23 PM 39.4458 -104.7608 41° Northeast 297 342 13,100 -774 Descending Denver Center
Sat 02:02:25 PM 39.5161 -104.7072 30° Northeast 273 314 12,200 -1,161 Descending Denver Center
Sat 02:03:27 PM 39.5836 -104.6608 28° Northeast 276 318 10,700 -1,561 Descending Denver Center
Sat 02:04:28 PM 39.6656 -104.6633 359° North 274 315 9,000 -1,659 Descending Denver Center
Sat 02:05:30 PM 39.7364 -104.6619 North 259 298 7,300 -1,403 Descending Denver Center
Sat 02:06:32 PM 39.7958 -104.6608 North 194 223 6,100 -919 Descending Denver Center
Sat 02:07:34 PM 39.8381 -104.6608 360° North 158 182 5,400 -677 Descending Denver Center
Sat 02:09:00 PM 39.8500 -104.6667 North  Level FlightAware Approximate
Sat 02:16:00 PM 39.8617 -104.6732 North  Level Estimated
Sat 02:17:00 PM 39.8617 -104.6732 North  Level Estimated
Sat 02:18:00 PM 39.8617 -104.6732 North  Level Estimated

Login

Don't have an account? Register now (free) for customized features, flight alerts, and more!